sensor_id;sensor_type;location;lat;lon;timestamp;P1;durP1;ratioP1;P2;durP2;ratioP2
10847;SDS011;5477;48.806;9.154;2023-09-07T00:01:06;6.23;;;3.20;;
10847;SDS011;5477;48.806;9.154;2023-09-07T00:03:34;3.37;;;3.07;;
10847;SDS011;5477;48.806;9.154;2023-09-07T00:06:08;3.80;;;3.23;;
10847;SDS011;5477;48.806;9.154;2023-09-07T00:08:36;4.37;;;3.43;;
10847;SDS011;5477;48.806;9.154;2023-09-07T00:11:05;4.27;;;3.27;;
10847;SDS011;5477;48.806;9.154;2023-09-07T00:13:35;4.40;;;3.30;;
10847;SDS011;5477;48.806;9.154;2023-09-07T00:16:04;5.03;;;3.70;;
10847;SDS011;5477;48.806;9.154;2023-09-07T00:18:33;6.33;;;3.67;;
10847;SDS011;5477;48.806;9.154;2023-09-07T00:21:01;4.17;;;3.70;;
10847;SDS011;5477;48.806;9.154;2023-09-07T00:23:29;4.00;;;3.40;;
10847;SDS011;5477;48.806;9.154;2023-09-07T00:25:57;6.70;;;3.50;;
10847;SDS011;5477;48.806;9.154;2023-09-07T00:28:25;4.00;;;3.60;;
10847;SDS011;5477;48.806;9.154;2023-09-07T00:30:55;4.07;;;3.67;;
10847;SDS011;5477;48.806;9.154;2023-09-07T00:33:23;5.57;;;3.33;;
10847;SDS011;5477;48.806;9.154;2023-09-07T00:35:51;4.53;;;3.60;;
10847;SDS011;5477;48.806;9.154;2023-09-07T00:38:19;3.80;;;3.40;;
10847;SDS011;5477;48.806;9.154;2023-09-07T00:40:47;5.23;;;3.87;;
10847;SDS011;5477;48.806;9.154;2023-09-07T00:43:15;5.83;;;3.77;;
10847;SDS011;5477;48.806;9.154;2023-09-07T00:45:43;5.37;;;4.03;;
10847;SDS011;5477;48.806;9.154;2023-09-07T00:48:15;5.20;;;3.97;;
10847;SDS011;5477;48.806;9.154;2023-09-07T00:50:43;6.83;;;4.30;;
10847;SDS011;5477;48.806;9.154;2023-09-07T00:53:12;4.80;;;3.53;;
10847;SDS011;5477;48.806;9.154;2023-09-07T00:55:42;5.80;;;3.83;;
10847;SDS011;5477;48.806;9.154;2023-09-07T00:58:11;4.30;;;3.73;;
10847;SDS011;5477;48.806;9.154;2023-09-07T01:00:39;5.97;;;3.60;;
10847;SDS011;5477;48.806;9.154;2023-09-07T01:03:09;3.97;;;3.37;;
10847;SDS011;5477;48.806;9.154;2023-09-07T01:05:41;4.13;;;3.70;;
10847;SDS011;5477;48.806;9.154;2023-09-07T01:08:15;6.17;;;4.00;;
10847;SDS011;5477;48.806;9.154;2023-09-07T01:10:47;4.97;;;3.57;;
10847;SDS011;5477;48.806;9.154;2023-09-07T01:13:15;4.10;;;3.60;;
10847;SDS011;5477;48.806;9.154;2023-09-07T01:15:43;4.17;;;3.77;;
10847;SDS011;5477;48.806;9.154;2023-09-07T01:18:11;4.30;;;3.90;;
10847;SDS011;5477;48.806;9.154;2023-09-07T01:20:48;7.27;;;3.47;;
10847;SDS011;5477;48.806;9.154;2023-09-07T01:23:17;5.70;;;4.10;;
10847;SDS011;5477;48.806;9.154;2023-09-07T01:25:46;6.13;;;4.13;;
10847;SDS011;5477;48.806;9.154;2023-09-07T01:28:15;5.30;;;3.87;;
10847;SDS011;5477;48.806;9.154;2023-09-07T01:30:43;4.57;;;3.83;;
10847;SDS011;5477;48.806;9.154;2023-09-07T01:33:13;5.40;;;3.80;;
10847;SDS011;5477;48.806;9.154;2023-09-07T01:35:41;5.50;;;4.03;;
10847;SDS011;5477;48.806;9.154;2023-09-07T01:38:09;5.63;;;4.47;;
10847;SDS011;5477;48.806;9.154;2023-09-07T01:40:38;6.77;;;4.10;;
10847;SDS011;5477;48.806;9.154;2023-09-07T01:43:06;8.07;;;4.40;;
10847;SDS011;5477;48.806;9.154;2023-09-07T01:45:34;4.30;;;3.90;;
10847;SDS011;5477;48.806;9.154;2023-09-07T01:48:02;4.63;;;3.80;;
10847;SDS011;5477;48.806;9.154;2023-09-07T01:50:33;5.17;;;4.13;;
10847;SDS011;5477;48.806;9.154;2023-09-07T01:53:01;4.80;;;4.30;;
10847;SDS011;5477;48.806;9.154;2023-09-07T01:55:31;6.07;;;4.10;;
10847;SDS011;5477;48.806;9.154;2023-09-07T01:58:00;5.10;;;3.80;;
10847;SDS011;5477;48.806;9.154;2023-09-07T02:00:29;4.77;;;3.80;;
10847;SDS011;5477;48.806;9.154;2023-09-07T02:02:57;4.87;;;3.93;;
10847;SDS011;5477;48.806;9.154;2023-09-07T02:05:25;5.90;;;4.30;;
10847;SDS011;5477;48.806;9.154;2023-09-07T02:07:53;5.87;;;3.90;;
10847;SDS011;5477;48.806;9.154;2023-09-07T02:10:21;6.17;;;3.93;;
10847;SDS011;5477;48.806;9.154;2023-09-07T02:12:50;5.93;;;3.83;;
10847;SDS011;5477;48.806;9.154;2023-09-07T02:15:19;5.33;;;4.20;;
10847;SDS011;5477;48.806;9.154;2023-09-07T02:17:47;4.90;;;4.10;;
10847;SDS011;5477;48.806;9.154;2023-09-07T02:20:19;4.47;;;3.57;;
10847;SDS011;5477;48.806;9.154;2023-09-07T02:22:47;4.90;;;3.80;;
10847;SDS011;5477;48.806;9.154;2023-09-07T02:25:15;5.40;;;3.87;;
10847;SDS011;5477;48.806;9.154;2023-09-07T02:27:43;4.27;;;3.57;;
10847;SDS011;5477;48.806;9.154;2023-09-07T02:30:11;7.00;;;3.90;;
10847;SDS011;5477;48.806;9.154;2023-09-07T02:32:41;4.70;;;3.60;;
10847;SDS011;5477;48.806;9.154;2023-09-07T02:35:10;4.53;;;3.97;;
10847;SDS011;5477;48.806;9.154;2023-09-07T02:37:39;6.33;;;4.10;;
10847;SDS011;5477;48.806;9.154;2023-09-07T02:40:07;6.57;;;4.00;;
10847;SDS011;5477;48.806;9.154;2023-09-07T02:42:36;5.27;;;4.07;;
10847;SDS011;5477;48.806;9.154;2023-09-07T02:45:04;5.30;;;4.23;;
10847;SDS011;5477;48.806;9.154;2023-09-07T02:47:33;5.23;;;3.80;;
10847;SDS011;5477;48.806;9.154;2023-09-07T02:50:03;7.57;;;4.20;;
10847;SDS011;5477;48.806;9.154;2023-09-07T02:52:31;6.23;;;4.27;;
10847;SDS011;5477;48.806;9.154;2023-09-07T02:54:59;4.87;;;4.10;;
10847;SDS011;5477;48.806;9.154;2023-09-07T02:57:27;6.57;;;3.80;;
10847;SDS011;5477;48.806;9.154;2023-09-07T02:59:55;4.87;;;4.00;;
10847;SDS011;5477;48.806;9.154;2023-09-07T03:02:24;4.67;;;3.70;;
10847;SDS011;5477;48.806;9.154;2023-09-07T03:04:53;5.03;;;4.03;;
10847;SDS011;5477;48.806;9.154;2023-09-07T03:07:29;6.53;;;4.60;;
10847;SDS011;5477;48.806;9.154;2023-09-07T03:10:00;4.03;;;3.67;;
10847;SDS011;5477;48.806;9.154;2023-09-07T03:12:28;6.27;;;3.83;;
10847;SDS011;5477;48.806;9.154;2023-09-07T03:14:56;5.20;;;3.73;;
10847;SDS011;5477;48.806;9.154;2023-09-07T03:17:24;8.20;;;4.03;;
10847;SDS011;5477;48.806;9.154;2023-09-07T03:19:52;4.87;;;4.37;;
10847;SDS011;5477;48.806;9.154;2023-09-07T03:22:20;5.53;;;3.93;;
10847;SDS011;5477;48.806;9.154;2023-09-07T03:24:51;6.57;;;4.17;;
10847;SDS011;5477;48.806;9.154;2023-09-07T03:27:19;5.70;;;4.20;;
10847;SDS011;5477;48.806;9.154;2023-09-07T03:29:49;5.90;;;4.50;;
10847;SDS011;5477;48.806;9.154;2023-09-07T03:32:20;7.47;;;4.27;;
10847;SDS011;5477;48.806;9.154;2023-09-07T03:34:48;5.33;;;4.30;;
10847;SDS011;5477;48.806;9.154;2023-09-07T03:37:16;7.23;;;4.10;;
10847;SDS011;5477;48.806;9.154;2023-09-07T03:39:44;5.07;;;4.00;;
10847;SDS011;5477;48.806;9.154;2023-09-07T03:42:13;5.50;;;4.33;;
10847;SDS011;5477;48.806;9.154;2023-09-07T03:44:42;5.23;;;4.10;;
10847;SDS011;5477;48.806;9.154;2023-09-07T03:47:11;4.40;;;4.00;;
10847;SDS011;5477;48.806;9.154;2023-09-07T03:49:41;5.57;;;4.10;;
10847;SDS011;5477;48.806;9.154;2023-09-07T03:52:10;6.17;;;4.00;;
10847;SDS011;5477;48.806;9.154;2023-09-07T03:54:38;6.87;;;4.47;;
10847;SDS011;5477;48.806;9.154;2023-09-07T03:57:06;5.17;;;4.20;;
10847;SDS011;5477;48.806;9.154;2023-09-07T03:59:36;7.07;;;4.23;;
10847;SDS011;5477;48.806;9.154;2023-09-07T04:02:04;5.20;;;4.27;;
10847;SDS011;5477;48.806;9.154;2023-09-07T04:04:32;7.03;;;4.50;;
10847;SDS011;5477;48.806;9.154;2023-09-07T04:07:00;5.37;;;4.13;;
10847;SDS011;5477;48.806;9.154;2023-09-07T04:09:29;4.90;;;4.23;;
10847;SDS011;5477;48.806;9.154;2023-09-07T04:11:57;5.73;;;4.77;;
10847;SDS011;5477;48.806;9.154;2023-09-07T04:14:26;5.77;;;4.60;;
10847;SDS011;5477;48.806;9.154;2023-09-07T04:16:57;7.53;;;4.43;;
10847;SDS011;5477;48.806;9.154;2023-09-07T04:19:25;6.73;;;4.40;;
10847;SDS011;5477;48.806;9.154;2023-09-07T04:21:53;6.83;;;4.63;;
10847;SDS011;5477;48.806;9.154;2023-09-07T04:24:21;5.47;;;4.40;;
10847;SDS011;5477;48.806;9.154;2023-09-07T04:26:49;5.17;;;4.60;;
10847;SDS011;5477;48.806;9.154;2023-09-07T04:29:17;6.43;;;4.90;;
10847;SDS011;5477;48.806;9.154;2023-09-07T04:31:45;7.53;;;5.00;;
10847;SDS011;5477;48.806;9.154;2023-09-07T04:34:14;5.83;;;4.87;;
10847;SDS011;5477;48.806;9.154;2023-09-07T04:36:42;6.20;;;5.10;;
10847;SDS011;5477;48.806;9.154;2023-09-07T04:39:10;6.43;;;4.93;;
10847;SDS011;5477;48.806;9.154;2023-09-07T04:41:40;7.20;;;5.07;;
10847;SDS011;5477;48.806;9.154;2023-09-07T04:44:08;5.80;;;4.53;;
10847;SDS011;5477;48.806;9.154;2023-09-07T04:46:37;5.97;;;5.37;;
10847;SDS011;5477;48.806;9.154;2023-09-07T04:49:05;5.47;;;4.67;;
10847;SDS011;5477;48.806;9.154;2023-09-07T04:51:34;6.37;;;4.77;;
10847;SDS011;5477;48.806;9.154;2023-09-07T04:54:03;5.47;;;4.37;;
10847;SDS011;5477;48.806;9.154;2023-09-07T04:56:31;5.60;;;5.00;;
10847;SDS011;5477;48.806;9.154;2023-09-07T04:58:59;5.93;;;4.60;;
10847;SDS011;5477;48.806;9.154;2023-09-07T05:01:27;5.30;;;4.70;;
10847;SDS011;5477;48.806;9.154;2023-09-07T05:03:56;5.17;;;4.40;;
10847;SDS011;5477;48.806;9.154;2023-09-07T05:06:24;5.67;;;4.53;;
10847;SDS011;5477;48.806;9.154;2023-09-07T05:08:54;5.13;;;4.60;;
10847;SDS011;5477;48.806;9.154;2023-09-07T05:11:22;8.63;;;4.60;;
10847;SDS011;5477;48.806;9.154;2023-09-07T05:13:50;5.43;;;4.53;;
10847;SDS011;5477;48.806;9.154;2023-09-07T05:16:18;7.17;;;5.20;;
10847;SDS011;5477;48.806;9.154;2023-09-07T05:18:46;6.70;;;5.00;;
10847;SDS011;5477;48.806;9.154;2023-09-07T05:21:14;5.20;;;4.67;;
10847;SDS011;5477;48.806;9.154;2023-09-07T05:23:43;5.10;;;4.27;;
10847;SDS011;5477;48.806;9.154;2023-09-07T05:26:12;6.87;;;4.57;;
10847;SDS011;5477;48.806;9.154;2023-09-07T05:28:41;5.80;;;4.60;;
10847;SDS011;5477;48.806;9.154;2023-09-07T05:31:10;5.50;;;5.00;;
10847;SDS011;5477;48.806;9.154;2023-09-07T05:33:39;5.73;;;4.73;;
10847;SDS011;5477;48.806;9.154;2023-09-07T05:36:07;5.57;;;5.03;;
10847;SDS011;5477;48.806;9.154;2023-09-07T05:38:35;7.27;;;5.07;;
10847;SDS011;5477;48.806;9.154;2023-09-07T05:41:06;8.37;;;5.00;;
10847;SDS011;5477;48.806;9.154;2023-09-07T05:43:36;5.67;;;4.73;;
10847;SDS011;5477;48.806;9.154;2023-09-07T05:46:04;5.70;;;4.80;;
10847;SDS011;5477;48.806;9.154;2023-09-07T05:48:32;5.57;;;4.80;;
10847;SDS011;5477;48.806;9.154;2023-09-07T05:51:01;5.77;;;4.70;;
10847;SDS011;5477;48.806;9.154;2023-09-07T05:53:29;5.17;;;4.67;;
10847;SDS011;5477;48.806;9.154;2023-09-07T05:55:58;4.80;;;4.30;;
10847;SDS011;5477;48.806;9.154;2023-09-07T05:58:25;6.20;;;4.73;;
10847;SDS011;5477;48.806;9.154;2023-09-07T06:00:55;6.33;;;4.63;;
10847;SDS011;5477;48.806;9.154;2023-09-07T06:03:23;6.27;;;4.40;;
10847;SDS011;5477;48.806;9.154;2023-09-07T06:05:51;7.57;;;4.40;;
10847;SDS011;5477;48.806;9.154;2023-09-07T06:08:19;5.63;;;4.53;;
10847;SDS011;5477;48.806;9.154;2023-09-07T06:10:47;5.30;;;4.80;;
10847;SDS011;5477;48.806;9.154;2023-09-07T06:13:15;7.60;;;4.47;;
10847;SDS011;5477;48.806;9.154;2023-09-07T06:15:43;7.33;;;4.53;;
10847;SDS011;5477;48.806;9.154;2023-09-07T06:18:13;5.10;;;4.60;;
10847;SDS011;5477;48.806;9.154;2023-09-07T06:20:41;8.10;;;5.40;;
10847;SDS011;5477;48.806;9.154;2023-09-07T06:23:09;8.27;;;5.80;;
10847;SDS011;5477;48.806;9.154;2023-09-07T06:25:37;7.53;;;5.70;;
10847;SDS011;5477;48.806;9.154;2023-09-07T06:28:05;8.07;;;6.00;;
10847;SDS011;5477;48.806;9.154;2023-09-07T06:30:34;5.83;;;4.80;;
10847;SDS011;5477;48.806;9.154;2023-09-07T06:33:02;6.80;;;5.27;;
10847;SDS011;5477;48.806;9.154;2023-09-07T06:35:32;6.93;;;5.87;;
10847;SDS011;5477;48.806;9.154;2023-09-07T06:38:01;9.13;;;5.90;;
10847;SDS011;5477;48.806;9.154;2023-09-07T06:40:29;9.37;;;6.13;;
10847;SDS011;5477;48.806;9.154;2023-09-07T06:42:57;7.43;;;6.63;;
10847;SDS011;5477;48.806;9.154;2023-09-07T06:45:26;7.43;;;6.40;;
10847;SDS011;5477;48.806;9.154;2023-09-07T06:47:54;8.30;;;6.60;;
10847;SDS011;5477;48.806;9.154;2023-09-07T06:50:24;6.93;;;6.00;;
10847;SDS011;5477;48.806;9.154;2023-09-07T06:52:54;12.20;;;7.27;;
10847;SDS011;5477;48.806;9.154;2023-09-07T06:55:22;8.70;;;6.70;;
10847;SDS011;5477;48.806;9.154;2023-09-07T06:57:51;7.77;;;6.97;;
10847;SDS011;5477;48.806;9.154;2023-09-07T07:00:21;10.27;;;6.70;;
10847;SDS011;5477;48.806;9.154;2023-09-07T07:02:49;8.80;;;7.27;;
10847;SDS011;5477;48.806;9.154;2023-09-07T07:05:18;9.03;;;7.10;;
10847;SDS011;5477;48.806;9.154;2023-09-07T07:07:46;9.80;;;6.80;;
10847;SDS011;5477;48.806;9.154;2023-09-07T07:10:16;7.93;;;7.13;;
10847;SDS011;5477;48.806;9.154;2023-09-07T07:12:46;10.00;;;6.97;;
10847;SDS011;5477;48.806;9.154;2023-09-07T07:15:14;12.03;;;7.53;;
10847;SDS011;5477;48.806;9.154;2023-09-07T07:17:42;9.23;;;6.93;;
10847;SDS011;5477;48.806;9.154;2023-09-07T07:20:11;7.80;;;7.00;;
10847;SDS011;5477;48.806;9.154;2023-09-07T07:22:39;10.17;;;6.90;;
10847;SDS011;5477;48.806;9.154;2023-09-07T07:25:08;10.70;;;7.50;;
10847;SDS011;5477;48.806;9.154;2023-09-07T07:27:38;11.07;;;7.00;;
10847;SDS011;5477;48.806;9.154;2023-09-07T07:30:07;8.00;;;7.13;;
10847;SDS011;5477;48.806;9.154;2023-09-07T07:32:37;10.73;;;7.80;;
10847;SDS011;5477;48.806;9.154;2023-09-07T07:35:06;10.87;;;7.20;;
10847;SDS011;5477;48.806;9.154;2023-09-07T07:37:34;12.10;;;7.60;;
10847;SDS011;5477;48.806;9.154;2023-09-07T07:40:04;10.13;;;6.97;;
10847;SDS011;5477;48.806;9.154;2023-09-07T07:42:33;9.90;;;6.50;;
10847;SDS011;5477;48.806;9.154;2023-09-07T07:45:06;11.53;;;6.77;;
10847;SDS011;5477;48.806;9.154;2023-09-07T07:47:35;11.07;;;6.80;;
10847;SDS011;5477;48.806;9.154;2023-09-07T07:50:04;8.00;;;6.30;;
10847;SDS011;5477;48.806;9.154;2023-09-07T07:52:33;9.77;;;6.40;;
10847;SDS011;5477;48.806;9.154;2023-09-07T07:55:03;8.97;;;6.37;;
10847;SDS011;5477;48.806;9.154;2023-09-07T07:57:31;10.13;;;6.30;;
10847;SDS011;5477;48.806;9.154;2023-09-07T08:00:03;7.83;;;6.17;;
10847;SDS011;5477;48.806;9.154;2023-09-07T08:02:42;6.70;;;5.90;;
10847;SDS011;5477;48.806;9.154;2023-09-07T08:05:12;11.83;;;5.90;;
10847;SDS011;5477;48.806;9.154;2023-09-07T08:07:41;10.33;;;5.47;;
10847;SDS011;5477;48.806;9.154;2023-09-07T08:10:09;6.43;;;5.73;;
10847;SDS011;5477;48.806;9.154;2023-09-07T08:12:37;7.13;;;5.03;;
10847;SDS011;5477;48.806;9.154;2023-09-07T08:15:07;5.73;;;5.23;;
10847;SDS011;5477;48.806;9.154;2023-09-07T08:17:36;6.97;;;4.73;;
10847;SDS011;5477;48.806;9.154;2023-09-07T08:20:05;7.83;;;5.50;;
10847;SDS011;5477;48.806;9.154;2023-09-07T08:22:37;6.90;;;5.40;;
10847;SDS011;5477;48.806;9.154;2023-09-07T08:25:08;6.80;;;5.40;;
10847;SDS011;5477;48.806;9.154;2023-09-07T08:27:37;5.40;;;4.90;;
10847;SDS011;5477;48.806;9.154;2023-09-07T08:30:05;6.87;;;5.77;;
10847;SDS011;5477;48.806;9.154;2023-09-07T08:32:36;8.33;;;5.30;;
10847;SDS011;5477;48.806;9.154;2023-09-07T08:35:04;7.77;;;5.77;;
10847;SDS011;5477;48.806;9.154;2023-09-07T08:37:34;7.23;;;5.03;;
10847;SDS011;5477;48.806;9.154;2023-09-07T08:40:03;7.70;;;5.60;;
10847;SDS011;5477;48.806;9.154;2023-09-07T08:42:35;5.83;;;5.33;;
10847;SDS011;5477;48.806;9.154;2023-09-07T08:45:04;5.90;;;5.30;;
10847;SDS011;5477;48.806;9.154;2023-09-07T08:47:37;9.60;;;8.07;;
10847;SDS011;5477;48.806;9.154;2023-09-07T08:50:06;9.03;;;5.63;;
10847;SDS011;5477;48.806;9.154;2023-09-07T08:52:35;6.90;;;5.50;;
10847;SDS011;5477;48.806;9.154;2023-09-07T08:55:03;5.93;;;5.33;;
10847;SDS011;5477;48.806;9.154;2023-09-07T08:57:32;6.97;;;5.10;;
10847;SDS011;5477;48.806;9.154;2023-09-07T09:00:01;8.50;;;5.37;;
10847;SDS011;5477;48.806;9.154;2023-09-07T09:02:34;6.37;;;5.67;;
10847;SDS011;5477;48.806;9.154;2023-09-07T09:05:04;10.37;;;5.60;;
10847;SDS011;5477;48.806;9.154;2023-09-07T09:07:36;6.27;;;5.67;;
10847;SDS011;5477;48.806;9.154;2023-09-07T09:10:04;8.93;;;5.47;;
10847;SDS011;5477;48.806;9.154;2023-09-07T09:12:33;8.40;;;5.13;;
10847;SDS011;5477;48.806;9.154;2023-09-07T09:15:01;6.07;;;5.47;;
10847;SDS011;5477;48.806;9.154;2023-09-07T09:17:30;5.87;;;5.17;;
10847;SDS011;5477;48.806;9.154;2023-09-07T09:19:59;8.03;;;5.63;;
10847;SDS011;5477;48.806;9.154;2023-09-07T09:22:28;6.50;;;5.20;;
10847;SDS011;5477;48.806;9.154;2023-09-07T09:24:56;6.70;;;5.07;;
10847;SDS011;5477;48.806;9.154;2023-09-07T09:27:24;8.43;;;5.70;;
10847;SDS011;5477;48.806;9.154;2023-09-07T09:29:52;8.70;;;5.50;;
10847;SDS011;5477;48.806;9.154;2023-09-07T09:32:21;7.10;;;4.90;;
10847;SDS011;5477;48.806;9.154;2023-09-07T09:34:49;6.10;;;5.40;;
10847;SDS011;5477;48.806;9.154;2023-09-07T09:37:19;7.32;;;6.00;;
10847;SDS011;5477;48.806;9.154;2023-09-07T09:39:48;5.88;;;5.35;;
10847;SDS011;5477;48.806;9.154;2023-09-07T09:42:17;8.07;;;5.72;;
10847;SDS011;5477;48.806;9.154;2023-09-07T09:44:45;6.97;;;4.70;;
10847;SDS011;5477;48.806;9.154;2023-09-07T09:47:16;5.72;;;5.20;;
10847;SDS011;5477;48.806;9.154;2023-09-07T09:49:46;6.28;;;5.20;;
10847;SDS011;5477;48.806;9.154;2023-09-07T09:52:16;6.15;;;5.10;;
10847;SDS011;5477;48.806;9.154;2023-09-07T09:54:45;8.93;;;4.93;;
10847;SDS011;5477;48.806;9.154;2023-09-07T09:57:14;8.05;;;5.35;;
10847;SDS011;5477;48.806;9.154;2023-09-07T09:59:42;8.70;;;5.25;;
10847;SDS011;5477;48.806;9.154;2023-09-07T10:02:10;7.05;;;5.22;;
10847;SDS011;5477;48.806;9.154;2023-09-07T10:04:39;7.82;;;5.10;;
10847;SDS011;5477;48.806;9.154;2023-09-07T10:07:07;9.98;;;5.47;;
10847;SDS011;5477;48.806;9.154;2023-09-07T10:09:35;8.82;;;5.28;;
10847;SDS011;5477;48.806;9.154;2023-09-07T10:12:11;9.95;;;5.72;;
10847;SDS011;5477;48.806;9.154;2023-09-07T10:14:44;6.72;;;4.82;;
10847;SDS011;5477;48.806;9.154;2023-09-07T10:17:21;7.40;;;4.97;;
10847;SDS011;5477;48.806;9.154;2023-09-07T10:19:50;5.25;;;4.75;;
10847;SDS011;5477;48.806;9.154;2023-09-07T10:22:31;9.27;;;5.00;;
10847;SDS011;5477;48.806;9.154;2023-09-07T10:24:59;7.80;;;5.38;;
10847;SDS011;5477;48.806;9.154;2023-09-07T10:30:10;5.60;;;4.72;;
10847;SDS011;5477;48.806;9.154;2023-09-07T10:32:43;9.55;;;5.22;;
10847;SDS011;5477;48.806;9.154;2023-09-07T10:35:18;7.47;;;5.18;;
10847;SDS011;5477;48.806;9.154;2023-09-07T10:37:52;8.15;;;5.38;;
10847;SDS011;5477;48.806;9.154;2023-09-07T10:40:29;5.18;;;4.68;;
10847;SDS011;5477;48.806;9.154;2023-09-07T10:43:00;5.32;;;4.65;;
10847;SDS011;5477;48.806;9.154;2023-09-07T10:45:32;6.85;;;4.97;;
10847;SDS011;5477;48.806;9.154;2023-09-07T10:48:01;5.40;;;4.90;;
10847;SDS011;5477;48.806;9.154;2023-09-07T10:50:44;4.75;;;4.35;;
10847;SDS011;5477;48.806;9.154;2023-09-07T10:53:13;7.80;;;4.57;;
10847;SDS011;5477;48.806;9.154;2023-09-07T10:55:46;5.50;;;4.95;;
10847;SDS011;5477;48.806;9.154;2023-09-07T10:58:24;8.68;;;4.57;;
10847;SDS011;5477;48.806;9.154;2023-09-07T11:00:59;5.85;;;4.47;;
10847;SDS011;5477;48.806;9.154;2023-09-07T11:03:28;5.72;;;5.18;;
10847;SDS011;5477;48.806;9.154;2023-09-07T11:06:04;6.00;;;4.40;;
10847;SDS011;5477;48.806;9.154;2023-09-07T11:08:37;5.82;;;5.03;;
10847;SDS011;5477;48.806;9.154;2023-09-07T11:11:30;7.70;;;5.03;;
10847;SDS011;5477;48.806;9.154;2023-09-07T11:14:02;6.38;;;4.47;;
10847;SDS011;5477;48.806;9.154;2023-09-07T11:16:44;6.07;;;4.80;;
10847;SDS011;5477;48.806;9.154;2023-09-07T11:19:21;6.22;;;4.40;;
10847;SDS011;5477;48.806;9.154;2023-09-07T11:21:53;5.25;;;4.47;;
10847;SDS011;5477;48.806;9.154;2023-09-07T11:24:22;4.60;;;4.20;;
10847;SDS011;5477;48.806;9.154;2023-09-07T11:26:51;6.22;;;4.53;;
10847;SDS011;5477;48.806;9.154;2023-09-07T11:29:25;5.78;;;5.13;;
10847;SDS011;5477;48.806;9.154;2023-09-07T11:32:04;7.13;;;4.22;;
10847;SDS011;5477;48.806;9.154;2023-09-07T11:34:33;4.90;;;4.50;;
10847;SDS011;5477;48.806;9.154;2023-09-07T11:37:02;6.03;;;4.57;;
10847;SDS011;5477;48.806;9.154;2023-09-07T11:39:30;7.30;;;4.65;;
10847;SDS011;5477;48.806;9.154;2023-09-07T11:41:58;6.03;;;3.90;;
10847;SDS011;5477;48.806;9.154;2023-09-07T11:44:26;6.65;;;3.88;;
10847;SDS011;5477;48.806;9.154;2023-09-07T11:46:56;5.15;;;4.20;;
10847;SDS011;5477;48.806;9.154;2023-09-07T11:49:24;6.35;;;4.13;;
10847;SDS011;5477;48.806;9.154;2023-09-07T11:51:53;4.55;;;4.15;;
10847;SDS011;5477;48.806;9.154;2023-09-07T11:54:21;5.20;;;4.13;;
10847;SDS011;5477;48.806;9.154;2023-09-07T11:56:49;5.93;;;4.10;;
10847;SDS011;5477;48.806;9.154;2023-09-07T11:59:17;5.53;;;3.92;;
10847;SDS011;5477;48.806;9.154;2023-09-07T12:01:45;5.22;;;4.00;;
10847;SDS011;5477;48.806;9.154;2023-09-07T12:04:15;4.03;;;3.55;;
10847;SDS011;5477;48.806;9.154;2023-09-07T12:06:43;3.90;;;3.58;;
10847;SDS011;5477;48.806;9.154;2023-09-07T12:09:11;5.13;;;3.95;;
10847;SDS011;5477;48.806;9.154;2023-09-07T12:11:41;4.05;;;3.65;;
10847;SDS011;5477;48.806;9.154;2023-09-07T12:14:10;6.18;;;3.78;;
10847;SDS011;5477;48.806;9.154;2023-09-07T12:16:38;5.50;;;3.63;;
10847;SDS011;5477;48.806;9.154;2023-09-07T12:19:06;4.00;;;3.40;;
10847;SDS011;5477;48.806;9.154;2023-09-07T12:21:36;4.35;;;3.78;;
10847;SDS011;5477;48.806;9.154;2023-09-07T12:24:04;4.95;;;3.63;;
10847;SDS011;5477;48.806;9.154;2023-09-07T12:26:32;3.80;;;3.45;;
10847;SDS011;5477;48.806;9.154;2023-09-07T12:29:01;4.32;;;3.15;;
10847;SDS011;5477;48.806;9.154;2023-09-07T12:31:29;3.72;;;3.42;;
10847;SDS011;5477;48.806;9.154;2023-09-07T12:33:57;3.75;;;3.35;;
10847;SDS011;5477;48.806;9.154;2023-09-07T12:36:26;6.00;;;3.30;;
10847;SDS011;5477;48.806;9.154;2023-09-07T12:38:57;3.20;;;2.90;;
10847;SDS011;5477;48.806;9.154;2023-09-07T12:41:27;3.88;;;2.92;;
10847;SDS011;5477;48.806;9.154;2023-09-07T12:43:55;3.50;;;3.20;;
10847;SDS011;5477;48.806;9.154;2023-09-07T12:46:25;5.80;;;3.08;;
10847;SDS011;5477;48.806;9.154;2023-09-07T12:48:53;3.55;;;3.05;;
10847;SDS011;5477;48.806;9.154;2023-09-07T12:51:21;3.10;;;2.88;;
10847;SDS011;5477;48.806;9.154;2023-09-07T12:53:49;5.85;;;3.15;;
10847;SDS011;5477;48.806;9.154;2023-09-07T12:56:19;4.85;;;2.97;;
10847;SDS011;5477;48.806;9.154;2023-09-07T12:58:47;3.40;;;3.10;;
10847;SDS011;5477;48.806;9.154;2023-09-07T13:01:15;3.38;;;3.08;;
10847;SDS011;5477;48.806;9.154;2023-09-07T13:03:44;4.18;;;2.85;;
10847;SDS011;5477;48.806;9.154;2023-09-07T13:06:13;2.90;;;2.70;;
10847;SDS011;5477;48.806;9.154;2023-09-07T13:08:43;3.38;;;2.80;;
10847;SDS011;5477;48.806;9.154;2023-09-07T13:11:12;5.93;;;3.35;;
10847;SDS011;5477;48.806;9.154;2023-09-07T13:13:41;3.60;;;3.10;;
10847;SDS011;5477;48.806;9.154;2023-09-07T13:16:09;3.90;;;2.85;;
10847;SDS011;5477;48.806;9.154;2023-09-07T13:18:38;6.57;;;3.88;;
10847;SDS011;5477;48.806;9.154;2023-09-07T13:21:06;3.92;;;2.90;;
10847;SDS011;5477;48.806;9.154;2023-09-07T13:23:34;4.93;;;2.80;;
10847;SDS011;5477;48.806;9.154;2023-09-07T13:26:02;3.70;;;2.97;;
10847;SDS011;5477;48.806;9.154;2023-09-07T13:28:29;4.07;;;3.00;;
10847;SDS011;5477;48.806;9.154;2023-09-07T13:31:00;3.10;;;2.80;;
10847;SDS011;5477;48.806;9.154;2023-09-07T13:33:29;5.57;;;2.70;;
10847;SDS011;5477;48.806;9.154;2023-09-07T13:35:57;2.80;;;2.60;;
10847;SDS011;5477;48.806;9.154;2023-09-07T13:38:26;3.75;;;2.67;;
10847;SDS011;5477;48.806;9.154;2023-09-07T13:41:02;2.95;;;2.67;;
10847;SDS011;5477;48.806;9.154;2023-09-07T13:43:42;3.00;;;2.75;;
10847;SDS011;5477;48.806;9.154;2023-09-07T13:46:16;4.82;;;2.70;;
10847;SDS011;5477;48.806;9.154;2023-09-07T13:48:45;3.42;;;2.58;;
10847;SDS011;5477;48.806;9.154;2023-09-07T13:51:15;3.20;;;2.90;;
10847;SDS011;5477;48.806;9.154;2023-09-07T13:53:44;3.92;;;2.75;;
10847;SDS011;5477;48.806;9.154;2023-09-07T13:56:12;4.05;;;2.75;;
10847;SDS011;5477;48.806;9.154;2023-09-07T13:58:41;3.00;;;2.80;;
10847;SDS011;5477;48.806;9.154;2023-09-07T14:01:13;3.45;;;2.70;;
10847;SDS011;5477;48.806;9.154;2023-09-07T14:03:43;5.50;;;2.92;;
10847;SDS011;5477;48.806;9.154;2023-09-07T14:06:15;4.78;;;2.97;;
10847;SDS011;5477;48.806;9.154;2023-09-07T14:08:52;4.22;;;3.03;;
10847;SDS011;5477;48.806;9.154;2023-09-07T14:11:24;3.10;;;2.80;;
10847;SDS011;5477;48.806;9.154;2023-09-07T14:13:55;3.03;;;2.70;;
10847;SDS011;5477;48.806;9.154;2023-09-07T14:16:26;3.90;;;2.85;;
10847;SDS011;5477;48.806;9.154;2023-09-07T14:18:54;2.85;;;2.63;;
10847;SDS011;5477;48.806;9.154;2023-09-07T14:21:25;3.38;;;3.03;;
10847;SDS011;5477;48.806;9.154;2023-09-07T14:23:54;4.05;;;2.60;;
10847;SDS011;5477;48.806;9.154;2023-09-07T14:26:26;4.45;;;2.65;;
10847;SDS011;5477;48.806;9.154;2023-09-07T14:28:59;6.40;;;2.90;;
10847;SDS011;5477;48.806;9.154;2023-09-07T14:31:35;2.83;;;2.58;;
10847;SDS011;5477;48.806;9.154;2023-09-07T14:34:05;2.85;;;2.47;;
10847;SDS011;5477;48.806;9.154;2023-09-07T14:36:33;4.75;;;2.70;;
10847;SDS011;5477;48.806;9.154;2023-09-07T14:39:07;3.03;;;2.75;;
10847;SDS011;5477;48.806;9.154;2023-09-07T14:41:39;3.13;;;2.70;;
10847;SDS011;5477;48.806;9.154;2023-09-07T14:44:11;3.28;;;2.97;;
10847;SDS011;5477;48.806;9.154;2023-09-07T14:46:49;3.15;;;2.67;;
10847;SDS011;5477;48.806;9.154;2023-09-07T14:49:19;4.82;;;2.90;;
10847;SDS011;5477;48.806;9.154;2023-09-07T14:51:48;4.18;;;2.72;;
10847;SDS011;5477;48.806;9.154;2023-09-07T14:54:17;3.40;;;2.92;;
10847;SDS011;5477;48.806;9.154;2023-09-07T14:56:45;3.38;;;2.70;;
10847;SDS011;5477;48.806;9.154;2023-09-07T14:59:14;4.95;;;2.92;;
10847;SDS011;5477;48.806;9.154;2023-09-07T15:01:43;4.03;;;2.75;;
10847;SDS011;5477;48.806;9.154;2023-09-07T15:04:22;6.25;;;2.80;;
10847;SDS011;5477;48.806;9.154;2023-09-07T15:06:51;2.92;;;2.70;;
10847;SDS011;5477;48.806;9.154;2023-09-07T15:09:22;3.90;;;2.83;;
10847;SDS011;5477;48.806;9.154;2023-09-07T15:11:58;3.00;;;2.78;;
10847;SDS011;5477;48.806;9.154;2023-09-07T15:14:26;6.03;;;3.10;;
10847;SDS011;5477;48.806;9.154;2023-09-07T15:16:58;2.97;;;2.67;;